CheckWX is a tool to help pilots better visualize weather data.  It is not intended as a substitute for an official pre-flight weather briefing.

05:40:39 UTC

ENGC METAR
Gullfax Platform Airport
Norway
Current

51 mins ago

ENGC 240450Z 26027KT CAVOK 08/06 Q1028 W06/S5
Observed
Feb-24 @ 04:50 UTC
Wind
  • 260° at 27 KTS
Visibility
10,000+ meters
Flight Rules
VFR
Cloud Levels
  • Clear skies
Temperature
C / 46°F
Dewpoint
C / 43°F
Humidity
87%
Altimeter
30.35" Hg
Pressure
1027.92 hPa
Previous

2 hours ago

ENGC 240350Z 27024KT CAVOK 08/06 Q1027 W06/S5
Observed
Feb-24 @ 03:50 UTC
Wind
  • 270° at 24 KTS
Visibility
10,000+ meters
Flight Rules
VFR
Cloud Levels
  • Clear skies
Temperature
C / 46°F
Dewpoint
C / 43°F
Humidity
87%
Altimeter
30.32" Hg
Pressure
1026.92 hPa
Previous

3 hours ago

ENGC 240250Z 28026KT CAVOK 09/06 Q1027 W06/S5
Observed
Feb-24 @ 02:50 UTC
Wind
  • 280° at 26 KTS
Visibility
10,000+ meters
Flight Rules
VFR
Cloud Levels
  • Clear skies
Temperature
C / 48°F
Dewpoint
C / 43°F
Humidity
82%
Altimeter
30.32" Hg
Pressure
1026.92 hPa